createdAt,value
2023-04-02T00:01:02.634Z,95853.56
2023-04-02T00:03:44.545Z,95861.22
2023-04-02T00:06:45.332Z,95866.31
2023-04-02T00:09:14.812Z,95859.50
2023-04-02T00:11:44.611Z,95860.34
2023-04-02T00:14:29.428Z,95861.19
2023-04-02T00:16:58.078Z,95869.72
2023-04-02T00:19:36.598Z,95868.88
2023-04-02T00:22:07.628Z,95869.69
2023-04-02T00:24:34.267Z,95853.53
2023-04-02T00:27:00.964Z,95868.00
2023-04-02T00:29:27.474Z,95876.50
2023-04-02T00:31:54.708Z,95865.44
2023-04-02T00:34:23.743Z,95879.06
2023-04-02T00:36:51.031Z,95878.19
2023-04-02T00:39:29.798Z,95878.19
2023-04-02T00:42:04.777Z,95879.88
2023-04-02T00:44:38.469Z,95882.44
2023-04-02T00:47:31.796Z,95880.72
2023-04-02T00:50:05.594Z,95879.88
2023-04-02T00:52:32.989Z,95879.06
2023-04-02T00:55:37.425Z,95878.16
2023-04-02T00:58:15.649Z,95874.78
2023-04-02T01:00:49.448Z,95883.28
2023-04-02T01:03:19.377Z,95883.28
2023-04-02T01:06:15.410Z,95884.13
2023-04-02T01:09:05.953Z,95894.31
2023-04-02T01:11:55.159Z,95892.59
2023-04-02T01:14:37.364Z,95896.03
2023-04-02T01:17:19.880Z,95898.59
2023-04-02T01:20:01.468Z,95898.56
2023-04-02T01:22:48.197Z,95898.56
2023-04-02T01:25:24.918Z,95903.69
2023-04-02T01:28:08.315Z,95909.63
2023-04-02T01:30:36.538Z,95903.69
2023-04-02T01:33:05.039Z,95910.50
2023-04-02T01:35:36.494Z,95899.44
2023-04-02T01:38:08.442Z,95915.56
2023-04-02T01:40:54.424Z,95913.91
2023-04-02T01:43:49.679Z,95920.69
2023-04-02T01:46:31.963Z,95917.25
2023-04-02T01:49:02.713Z,95919.81
2023-04-02T01:51:33.291Z,95921.50
2023-04-02T01:54:03.231Z,95921.50
2023-04-02T01:56:30.447Z,95923.22
2023-04-02T01:58:58.435Z,95925.75
2023-04-02T02:01:32.042Z,95927.44
2023-04-02T02:03:59.830Z,95929.16
2023-04-02T02:06:26.372Z,95926.59
2023-04-02T02:08:57.759Z,95931.69
2023-04-02T02:11:28.205Z,95928.28
2023-04-02T02:14:20.680Z,95932.53
2023-04-02T02:16:48.221Z,95928.28
2023-04-02T02:19:42.092Z,95940.19
2023-04-02T02:22:14.389Z,95939.34
2023-04-02T02:24:42.085Z,95942.72
2023-04-02T02:27:23.626Z,95939.31
2023-04-02T02:29:53.234Z,95939.34
2023-04-02T02:32:23.592Z,95947.84
2023-04-02T02:34:59.936Z,95941.88
2023-04-02T02:37:33.800Z,95950.41
2023-04-02T02:40:03.885Z,95952.94
2023-04-02T02:42:54.370Z,95955.50
2023-04-02T02:45:26.325Z,95958.03
2023-04-02T02:47:55.326Z,95960.56
2023-04-02T02:50:31.570Z,95963.13
2023-04-02T02:53:00.441Z,95965.66
2023-04-02T02:55:36.822Z,95962.28
2023-04-02T02:58:09.637Z,95967.38
2023-04-02T03:00:37.556Z,95975.84
2023-04-02T03:03:22.007Z,95977.56
2023-04-02T03:06:02.102Z,95975.84
2023-04-02T03:08:41.644Z,95972.44
2023-04-02T03:11:49.694Z,95971.56
2023-04-02T03:14:31.743Z,95985.19
2023-04-02T03:17:14.793Z,95985.16
2023-04-02T03:19:48.970Z,95984.31
2023-04-02T03:22:24.059Z,95991.97
2023-04-02T03:25:05.771Z,95994.50
2023-04-02T03:27:39.280Z,95995.34
2023-04-02T03:30:39.775Z,95993.63
2023-04-02T03:33:38.753Z,95999.59
2023-04-02T03:36:14.101Z,96003.81
2023-04-02T03:38:51.926Z,95991.84
2023-04-02T03:41:29.388Z,96000.41
2023-04-02T03:44:00.656Z,96003.81
2023-04-02T03:46:49.230Z,96007.22
2023-04-02T03:49:34.812Z,95997.84
2023-04-02T03:52:13.397Z,96004.59
2023-04-02T03:54:40.860Z,96011.41
2023-04-02T03:57:23.780Z,96022.44
2023-04-02T04:00:08.295Z,96007.16
2023-04-02T04:02:42.974Z,96016.50
2023-04-02T04:05:22.666Z,96020.78
2023-04-02T04:07:53.522Z,96018.22
2023-04-02T04:10:25.931Z,96020.78
2023-04-02T04:12:56.712Z,96025.03
2023-04-02T04:15:42.843Z,96030.94
2023-04-02T04:18:21.580Z,96031.84
2023-04-02T04:20:57.237Z,96047.94
2023-04-02T04:23:32.719Z,96044.56
2023-04-02T04:26:09.858Z,96047.97
2023-04-02T04:28:48.893Z,96050.50
2023-04-02T04:31:22.833Z,96053.03
2023-04-02T04:34:03.061Z,96058.13
2023-04-02T04:36:36.660Z,96058.16
2023-04-02T04:39:14.523Z,96069.19
2023-04-02T04:41:43.037Z,96066.63
2023-04-02T04:44:23.753Z,96064.97
2023-04-02T04:47:01.906Z,96070.03
2023-04-02T04:49:35.929Z,96071.78
2023-04-02T04:52:14.473Z,96086.22
2023-04-02T04:54:41.133Z,96078.53
2023-04-02T04:57:22.237Z,96091.25
2023-04-02T04:59:57.256Z,96094.66
2023-04-02T05:02:30.239Z,96098.06
2023-04-02T05:04:56.971Z,96098.06
2023-04-02T05:07:29.357Z,96092.97
2023-04-02T05:09:55.798Z,96099.75
2023-04-02T05:12:43.684Z,96102.31
2023-04-02T05:15:23.365Z,96103.19
2023-04-02T05:18:02.071Z,96107.47
2023-04-02T05:20:58.909Z,96103.22
2023-04-02T05:23:30.958Z,96114.28
2023-04-02T05:26:00.367Z,96114.22
2023-04-02T05:28:40.624Z,96113.34
2023-04-02T05:31:12.201Z,96115.06
2023-04-02T05:33:40.485Z,96122.75
2023-04-02T05:36:12.717Z,96125.31
2023-04-02T05:38:44.921Z,96121.88
2023-04-02T05:41:38.271Z,96130.38
2023-04-02T05:44:29.856Z,96129.53
2023-04-02T05:47:06.665Z,96133.81
2023-04-02T05:49:32.977Z,96137.22
2023-04-02T05:52:03.427Z,96142.31
2023-04-02T05:54:44.040Z,96138.06
2023-04-02T05:57:17.108Z,96138.88
2023-04-02T05:59:49.755Z,96148.25
2023-04-02T06:02:33.452Z,96152.53
2023-04-02T06:05:06.559Z,96155.06
2023-04-02T06:07:41.944Z,96155.91
2023-04-02T06:10:24.624Z,96166.09
2023-04-02T06:13:03.428Z,96161.00
2023-04-02T06:15:32.341Z,96161.00
2023-04-02T06:18:00.464Z,96161.88
2023-04-02T06:20:27.521Z,96169.50
2023-04-02T06:23:02.297Z,96165.28
2023-04-02T06:25:33.637Z,96171.22
2023-04-02T06:28:03.696Z,96175.50
2023-04-02T06:30:37.784Z,96179.75
2023-04-02T06:33:05.671Z,96178.94
2023-04-02T06:35:35.595Z,96184.06
2023-04-02T06:38:06.308Z,96186.63
2023-04-02T06:40:38.831Z,96189.22
2023-04-02T06:43:14.509Z,96196.91
2023-04-02T06:45:43.420Z,96190.97
2023-04-02T06:48:19.809Z,96196.13
2023-04-02T06:50:59.505Z,96197.88
2023-04-02T06:53:46.961Z,96204.69
2023-04-02T06:56:19.801Z,96202.16
2023-04-02T06:58:46.482Z,96211.53
2023-04-02T07:01:23.791Z,96220.06
2023-04-02T07:03:50.427Z,96215.00
2023-04-02T07:06:19.157Z,96224.34
2023-04-02T07:08:45.654Z,96220.97
2023-04-02T07:11:20.167Z,96219.28
2023-04-02T07:13:47.939Z,96215.03
2023-04-02T07:16:17.455Z,96226.16
2023-04-02T07:18:44.605Z,96232.16
2023-04-02T07:21:11.239Z,96225.34
2023-04-02T07:23:37.996Z,96229.66
2023-04-02T07:26:05.770Z,96233.91
2023-04-02T07:28:32.696Z,96229.66
2023-04-02T07:30:59.256Z,96229.66
2023-04-02T07:33:28.670Z,96242.47
2023-04-02T07:35:57.571Z,96245.88
2023-04-02T07:38:24.497Z,96252.66
2023-04-02T07:40:50.940Z,96250.91
2023-04-02T07:43:17.328Z,96254.38
2023-04-02T07:45:43.797Z,96261.13
2023-04-02T07:48:14.041Z,96267.13
2023-04-02T07:50:40.744Z,96266.31
2023-04-02T07:53:08.744Z,96277.38
2023-04-02T07:55:35.540Z,96276.50
2023-04-02T07:58:03.268Z,96284.22
2023-04-02T08:00:29.786Z,96285.91
2023-04-02T08:02:56.560Z,96285.94
2023-04-02T08:05:23.149Z,96290.16
2023-04-02T08:07:57.078Z,96292.72
2023-04-02T08:10:23.872Z,96299.56
2023-04-02T08:12:50.510Z,96301.22
2023-04-02T08:15:17.663Z,96299.53
2023-04-02T08:17:44.340Z,96301.19
2023-04-02T08:20:22.549Z,96308.84
2023-04-02T08:22:50.083Z,96316.50
2023-04-02T08:25:17.159Z,96316.53
2023-04-02T08:27:46.947Z,96314.84
2023-04-02T08:30:14.616Z,96318.22
2023-04-02T08:32:41.435Z,96320.75
2023-04-02T08:35:10.916Z,96320.78
2023-04-02T08:37:38.105Z,96326.72
2023-04-02T08:40:07.290Z,96317.31
2023-04-02T08:42:42.782Z,96330.16
2023-04-02T08:45:43.331Z,96331.81
2023-04-02T08:48:11.786Z,96337.81
2023-04-02T08:50:41.498Z,96342.06
2023-04-02T08:53:22.182Z,96339.50
2023-04-02T08:56:05.693Z,96345.50
2023-04-02T08:59:03.317Z,96348.91
2023-04-02T09:01:34.964Z,96349.81
2023-04-02T09:04:05.337Z,96356.59
2023-04-02T09:06:34.566Z,96348.94
2023-04-02T09:09:01.174Z,96349.81
2023-04-02T09:11:36.098Z,96354.94
2023-04-02T09:14:10.057Z,96356.63
2023-04-02T09:16:42.104Z,96360.91
2023-04-02T09:19:40.240Z,96370.28
2023-04-02T09:22:16.530Z,96367.69
2023-04-02T09:24:42.890Z,96377.06
2023-04-02T09:27:24.542Z,96377.97
2023-04-02T09:30:03.916Z,96386.50
2023-04-02T09:32:50.127Z,96388.25
2023-04-02T09:35:26.163Z,96395.06
2023-04-02T09:38:15.347Z,96394.22
2023-04-02T09:40:51.058Z,96395.03
2023-04-02T09:43:38.310Z,96399.34
2023-04-02T09:46:13.686Z,96401.03
2023-04-02T09:48:58.350Z,96411.31
2023-04-02T09:51:31.903Z,96413.84
2023-04-02T09:54:04.140Z,96423.16
2023-04-02T09:56:32.918Z,96428.31
2023-04-02T09:59:07.044Z,96433.41
2023-04-02T10:01:35.444Z,96433.34
2023-04-02T10:04:03.898Z,96437.59
2023-04-02T10:06:31.819Z,96446.91
2023-04-02T10:08:59.313Z,96438.44
2023-04-02T10:11:45.758Z,96446.06
2023-04-02T10:14:21.609Z,96453.72
2023-04-02T10:16:55.881Z,96446.94
2023-04-02T10:19:34.594Z,96453.75
2023-04-02T10:22:06.168Z,96454.56
2023-04-02T10:24:32.692Z,96452.03
2023-04-02T10:27:37.564Z,96462.13
2023-04-02T10:30:19.204Z,96483.47
2023-04-02T10:32:54.826Z,96475.72
2023-04-02T10:35:44.737Z,96482.56
2023-04-02T10:38:27.940Z,96485.94
2023-04-02T10:40:59.319Z,96486.75
2023-04-02T10:43:50.827Z,96496.91
2023-04-02T10:46:32.535Z,96498.59
2023-04-02T10:49:23.993Z,96500.31
2023-04-02T10:52:09.007Z,96500.19
2023-04-02T10:55:04.136Z,96513.91
2023-04-02T10:57:36.848Z,96523.25
2023-04-02T11:00:15.698Z,96523.19
2023-04-02T11:03:02.675Z,96529.22
2023-04-02T11:05:40.196Z,96528.34
2023-04-02T11:08:21.327Z,96526.59
2023-04-02T11:10:57.741Z,96534.38
2023-04-02T11:13:36.513Z,96535.25
2023-04-02T11:16:03.777Z,96537.84
2023-04-02T11:18:38.757Z,96542.94
2023-04-02T11:21:54.926Z,96541.25
2023-04-02T11:24:33.798Z,96544.63
2023-04-02T11:27:14.308Z,96551.47
2023-04-02T11:29:53.808Z,96557.50
2023-04-02T11:32:20.529Z,96551.63
2023-04-02T11:34:49.533Z,96559.25
2023-04-02T11:37:34.210Z,96564.41
2023-04-02T11:40:10.852Z,96561.81
2023-04-02T11:42:48.461Z,96572.00
2023-04-02T11:45:23.862Z,96582.19
2023-04-02T11:48:02.103Z,96584.72
2023-04-02T11:50:40.542Z,96581.25
2023-04-02T11:53:14.660Z,96585.47
2023-04-02T11:55:46.069Z,96596.44
2023-04-02T11:58:22.725Z,96594.66
2023-04-02T12:01:30.187Z,96607.19
2023-04-02T12:04:26.883Z,96603.53
2023-04-02T12:07:38.035Z,96615.59
2023-04-02T12:10:19.658Z,96614.91
2023-04-02T12:12:46.891Z,96608.22
2023-04-02T12:15:32.370Z,96622.88
2023-04-02T12:18:17.287Z,96624.69
2023-04-02T12:20:50.806Z,96627.34
2023-04-02T12:23:32.146Z,96635.00
2023-04-02T12:26:01.270Z,96634.81
2023-04-02T12:28:29.051Z,96646.78
2023-04-02T12:31:13.071Z,96649.06
2023-04-02T12:33:40.931Z,96653.63
2023-04-02T12:36:17.942Z,96647.78
2023-04-02T12:38:56.506Z,96649.59
2023-04-02T12:41:32.230Z,96652.31
2023-04-02T12:44:00.281Z,96649.03
2023-04-02T12:46:28.142Z,96648.28
2023-04-02T12:49:05.016Z,96660.81
2023-04-02T12:51:34.202Z,96662.41
2023-04-02T12:54:01.175Z,96665.56
2023-04-02T12:56:27.704Z,96669.00
2023-04-02T12:58:54.104Z,96674.19
2023-04-02T13:01:27.597Z,96679.09
2023-04-02T13:04:14.808Z,96675.28
2023-04-02T13:06:48.552Z,96689.06
2023-04-02T13:09:35.168Z,96687.22
2023-04-02T13:12:02.970Z,96682.91
2023-04-02T13:14:30.540Z,96688.78
2023-04-02T13:16:57.347Z,96696.41
2023-04-02T13:19:34.040Z,96687.84
2023-04-02T13:22:02.195Z,96693.91
2023-04-02T13:24:33.455Z,96701.91
2023-04-02T13:27:01.978Z,96706.19
2023-04-02T13:29:30.329Z,96710.44
2023-04-02T13:32:02.978Z,96706.22
2023-04-02T13:34:30.017Z,96710.34
2023-04-02T13:37:00.285Z,96712.94
2023-04-02T13:39:27.165Z,96711.91
2023-04-02T13:41:59.698Z,96712.78
2023-04-02T13:44:34.541Z,96712.81
2023-04-02T13:47:01.778Z,96721.31
2023-04-02T13:49:28.455Z,96727.00
2023-04-02T13:52:03.116Z,96725.38
2023-04-02T13:54:49.348Z,96734.41
2023-04-02T13:57:15.921Z,96728.31
2023-04-02T13:59:42.561Z,96736.00
2023-04-02T14:02:15.458Z,96736.03
2023-04-02T14:04:48.586Z,96743.50
2023-04-02T14:07:38.788Z,96741.81
2023-04-02T14:10:40.529Z,96751.03
2023-04-02T14:13:28.605Z,96756.69
2023-04-02T14:16:11.914Z,96767.75
2023-04-02T14:18:50.948Z,96767.75
2023-04-02T14:21:31.168Z,96774.66
2023-04-02T14:24:17.855Z,96775.16
2023-04-02T14:26:50.359Z,96775.28
2023-04-02T14:29:31.465Z,96779.38
2023-04-02T14:32:14.926Z,96781.06
2023-04-02T14:35:26.737Z,96781.00
2023-04-02T14:38:20.429Z,96782.66
2023-04-02T14:40:51.429Z,96786.25
2023-04-02T14:43:27.774Z,96787.81
2023-04-02T14:46:06.087Z,96799.81
2023-04-02T14:48:54.494Z,96791.19
2023-04-02T14:51:37.946Z,96801.44
2023-04-02T14:54:12.237Z,96796.03
2023-04-02T14:56:49.788Z,96809.41
2023-04-02T14:59:25.539Z,96808.59
2023-04-02T15:01:58.668Z,96812.13
2023-04-02T15:04:52.674Z,96822.34
2023-04-02T15:07:24.024Z,96812.97
2023-04-02T15:10:02.054Z,96812.78
2023-04-02T15:12:35.992Z,96825.22
2023-04-02T15:15:24.395Z,96834.56
2023-04-02T15:17:58.423Z,96829.28
2023-04-02T15:20:25.886Z,96837.56
2023-04-02T15:23:01.904Z,96846.72
2023-04-02T15:25:43.220Z,96837.66
2023-04-02T15:28:12.432Z,96842.84
2023-04-02T15:30:44.881Z,96847.06
2023-04-02T15:33:54.359Z,96848.78
2023-04-02T15:36:41.606Z,96857.13
2023-04-02T15:39:22.964Z,96860.41
2023-04-02T15:42:25.408Z,96858.72
2023-04-02T15:45:10.623Z,96866.06
2023-04-02T15:47:52.172Z,96868.75
2023-04-02T15:50:44.099Z,96872.06
2023-04-02T15:53:45.887Z,96877.88
2023-04-02T15:56:26.336Z,96883.06
2023-04-02T15:59:08.512Z,96888.81
2023-04-02T16:01:47.646Z,96887.03
2023-04-02T16:04:23.321Z,96890.47
2023-04-02T16:07:12.454Z,96892.16
2023-04-02T16:10:18.008Z,96897.00
2023-04-02T16:12:51.493Z,96901.13
2023-04-02T16:15:24.377Z,96900.00
2023-04-02T16:18:01.492Z,96901.25
2023-04-02T16:20:34.101Z,96905.41
2023-04-02T16:23:07.059Z,96912.97
2023-04-02T16:25:59.130Z,96921.34
2023-04-02T16:28:39.951Z,96927.13
2023-04-02T16:31:37.543Z,96929.75
2023-04-02T16:34:24.207Z,96938.69
2023-04-02T16:37:19.764Z,96944.53
2023-04-02T16:40:29.749Z,96946.03
2023-04-02T16:42:59.301Z,96948.28
2023-04-02T16:45:48.267Z,96965.69
2023-04-02T16:48:33.182Z,96967.31
2023-04-02T16:51:12.544Z,96961.06
2023-04-02T16:54:02.305Z,96973.38
2023-04-02T16:56:36.450Z,96984.81
2023-04-02T16:59:09.452Z,96995.50
2023-04-02T17:01:59.861Z,96995.34
2023-04-02T17:04:53.427Z,97002.72
2023-04-02T17:07:28.627Z,97009.47
2023-04-02T17:10:14.102Z,97005.19
2023-04-02T17:12:52.475Z,97017.00
2023-04-02T17:15:28.285Z,97018.66
2023-04-02T17:18:00.273Z,97025.22
2023-04-02T17:20:27.480Z,97028.47
2023-04-02T17:22:56.004Z,97039.13
2023-04-02T17:25:33.962Z,97045.06
2023-04-02T17:28:02.528Z,97050.88
2023-04-02T17:30:41.154Z,97054.91
2023-04-02T17:33:13.183Z,97064.94
2023-04-02T17:35:39.529Z,97067.31
2023-04-02T17:38:30.724Z,97073.13
2023-04-02T17:41:23.258Z,97080.75
2023-04-02T17:44:00.847Z,97086.53
2023-04-02T17:46:53.360Z,97095.56
2023-04-02T17:49:37.718Z,97097.09
2023-04-02T17:52:18.485Z,97100.41
2023-04-02T17:55:07.225Z,97100.41
2023-04-02T17:58:01.470Z,97108.84
2023-04-02T18:00:41.338Z,97116.34
2023-04-02T18:03:31.859Z,97117.78
2023-04-02T18:06:06.620Z,97132.72
2023-04-02T18:08:42.383Z,97145.19
2023-04-02T18:11:27.636Z,97147.72
2023-04-02T18:14:00.533Z,97151.66
2023-04-02T18:16:32.995Z,97155.00
2023-04-02T18:19:14.799Z,97156.38
2023-04-02T18:22:00.127Z,97158.88
2023-04-02T18:24:49.320Z,97169.63
2023-04-02T18:27:21.908Z,97175.50
2023-04-02T18:30:06.643Z,97175.59
2023-04-02T18:32:47.070Z,97178.75
2023-04-02T18:35:16.931Z,97182.94
2023-04-02T18:37:43.516Z,97187.91
2023-04-02T18:40:30.021Z,97189.34
2023-04-02T18:43:10.428Z,97199.38
2023-04-02T18:45:52.138Z,97205.28
2023-04-02T18:48:28.890Z,97208.53
2023-04-02T18:50:55.484Z,97209.41
2023-04-02T18:53:24.833Z,97210.13
2023-04-02T18:56:02.525Z,97215.28
2023-04-02T18:58:40.858Z,97218.59
2023-04-02T19:01:13.429Z,97221.94
2023-04-02T19:03:46.481Z,97226.25
2023-04-02T19:06:22.143Z,97227.06
2023-04-02T19:08:55.349Z,97236.28
2023-04-02T19:11:29.350Z,97232.88
2023-04-02T19:13:59.954Z,97232.88
2023-04-02T19:16:45.560Z,97246.34
2023-04-02T19:19:20.919Z,97247.06
2023-04-02T19:22:03.413Z,97244.34
2023-04-02T19:24:59.077Z,97247.75
2023-04-02T19:27:44.507Z,97246.88
2023-04-02T19:30:48.176Z,97259.47
2023-04-02T19:33:33.560Z,97261.19
2023-04-02T19:36:15.079Z,97264.53
2023-04-02T19:39:13.953Z,97263.66
2023-04-02T19:41:56.409Z,97264.53
2023-04-02T19:44:23.060Z,97254.16
2023-04-02T19:46:51.384Z,97275.34
2023-04-02T19:49:28.261Z,97271.22
2023-04-02T19:51:55.713Z,97277.00
2023-04-02T19:54:22.933Z,97277.78
2023-04-02T19:56:50.132Z,97276.06
2023-04-02T19:59:18.757Z,97281.19
2023-04-02T20:01:46.687Z,97288.78
2023-04-02T20:04:14.202Z,97291.31
2023-04-02T20:06:41.016Z,97294.72
2023-04-02T20:09:08.677Z,97296.47
2023-04-02T20:11:37.210Z,97298.91
2023-04-02T20:14:04.174Z,97292.94
2023-04-02T20:16:31.258Z,97312.44
2023-04-02T20:18:58.186Z,97309.91
2023-04-02T20:21:24.809Z,97309.03
2023-04-02T20:23:54.952Z,97313.31
2023-04-02T20:26:22.710Z,97314.91
2023-04-02T20:28:49.418Z,97323.31
2023-04-02T20:31:18.652Z,97329.22
2023-04-02T20:33:45.768Z,97332.50
2023-04-02T20:36:15.779Z,97330.94
2023-04-02T20:38:43.237Z,97329.16
2023-04-02T20:41:10.379Z,97329.97
2023-04-02T20:43:40.244Z,97336.50
2023-04-02T20:46:09.438Z,97337.56
2023-04-02T20:48:37.854Z,97343.41
2023-04-02T20:51:07.274Z,97345.84
2023-04-02T20:53:35.709Z,97361.00
2023-04-02T20:56:29.461Z,97364.25
2023-04-02T20:58:55.881Z,97368.47
2023-04-02T21:01:28.006Z,97366.69
2023-04-02T21:03:57.039Z,97378.47
2023-04-02T21:06:25.566Z,97384.25
2023-04-02T21:08:52.382Z,97384.13
2023-04-02T21:11:19.556Z,97392.63
2023-04-02T21:13:46.140Z,97385.84
2023-04-02T21:16:20.964Z,97387.44
2023-04-02T21:18:49.590Z,97388.22
2023-04-02T21:21:16.617Z,97391.56
2023-04-02T21:23:44.898Z,97391.56
2023-04-02T21:26:17.776Z,97393.97
2023-04-02T21:28:45.528Z,97380.38
2023-04-02T21:31:18.291Z,97387.97
2023-04-02T21:33:50.660Z,97395.63
2023-04-02T21:36:23.060Z,97393.88
2023-04-02T21:38:58.029Z,97398.88
2023-04-02T21:41:30.240Z,97402.34
2023-04-02T21:43:58.676Z,97404.00
2023-04-02T21:46:27.810Z,97401.47
2023-04-02T21:48:56.428Z,97392.91
2023-04-02T21:51:25.869Z,97402.22
2023-04-02T21:53:55.919Z,97399.53
2023-04-02T21:56:25.213Z,97397.00
2023-04-02T21:58:52.262Z,97395.34
2023-04-02T22:01:27.463Z,97394.47
2023-04-02T22:04:00.205Z,97393.59
2023-04-02T22:06:29.763Z,97385.94
2023-04-02T22:09:01.367Z,97393.47
2023-04-02T22:11:30.469Z,97389.13
2023-04-02T22:13:57.557Z,97401.00
2023-04-02T22:16:27.347Z,97400.91
2023-04-02T22:18:56.250Z,97403.25
2023-04-02T22:21:23.107Z,97402.59
2023-04-02T22:23:49.955Z,97405.97
2023-04-02T22:26:18.016Z,97412.69
2023-04-02T22:28:44.840Z,97411.63
2023-04-02T22:31:22.003Z,97412.56
2023-04-02T22:33:48.767Z,97418.50
2023-04-02T22:36:16.605Z,97417.56
2023-04-02T22:38:43.084Z,97413.38
2023-04-02T22:41:18.042Z,97426.00
2023-04-02T22:43:45.593Z,97426.00
2023-04-02T22:46:14.581Z,97418.31
2023-04-02T22:48:42.106Z,97419.13
2023-04-02T22:51:10.272Z,97417.44
2023-04-02T22:53:38.162Z,97423.28
2023-04-02T22:56:13.736Z,97425.72
2023-04-02T22:58:41.248Z,97426.59
2023-04-02T23:01:12.121Z,97428.25
2023-04-02T23:03:39.104Z,97419.69
2023-04-02T23:06:11.013Z,97422.91
2023-04-02T23:08:38.732Z,97428.75
2023-04-02T23:11:14.333Z,97435.63
2023-04-02T23:13:40.941Z,97435.63
2023-04-02T23:16:10.693Z,97437.22
2023-04-02T23:18:38.362Z,97441.41
2023-04-02T23:21:06.041Z,97442.28
2023-04-02T23:23:33.300Z,97429.50
2023-04-02T23:26:12.191Z,97431.16
2023-04-02T23:28:39.551Z,97423.41
2023-04-02T23:31:08.222Z,97425.03
2023-04-02T23:33:35.773Z,97432.03
2023-04-02T23:36:10.318Z,97433.53
2023-04-02T23:38:36.882Z,97420.75
2023-04-02T23:41:03.399Z,97441.13
2023-04-02T23:43:30.215Z,97427.63
2023-04-02T23:45:56.790Z,97421.56
2023-04-02T23:48:23.377Z,97412.97
2023-04-02T23:50:49.939Z,97418.03
2023-04-02T23:53:16.752Z,97419.81
2023-04-02T23:55:43.186Z,97428.94
2023-04-02T23:58:09.633Z,97428.94
